Time;durP1;ratioP1;P1;durP2;ratioP2;P2;SDS_P1;SDS_P2;PMS_P1;PMS_P2;Temp;Humidity;BMP_temperature;BMP_pressure;BME280_temperature;BME280_humidity;BME280_pressure;Samples;Min_cycle;Max_cycle;Signal;HPM_P1;HPM_P2
2023/07/18 00:00:25;;;;;;;9.90;5.50;;;20.70;30.60;;;;;;5041964;28;46593;-77
2023/07/18 00:02:51;;;;;;;9.17;6.03;;;20.60;31.00;;;;;;5060510;28;47557;-77
2023/07/18 00:05:17;;;;;;;10.13;5.87;;;20.60;31.40;;;;;;5048432;28;46617;-80
2023/07/18 00:07:43;;;;;;;15.20;6.50;;;20.60;31.80;;;;;;5062623;28;46363;-79
2023/07/18 00:10:09;;;;;;;13.47;6.00;;;20.60;32.40;;;;;;5062167;28;46059;-80
2023/07/18 00:12:36;;;;;;;11.10;5.90;;;20.50;33.00;;;;;;5044667;28;49567;-79
2023/07/18 00:15:04;;;;;;;11.10;6.37;;;20.50;33.70;;;;;;5041669;28;46766;-78
2023/07/18 00:17:31;;;;;;;11.10;5.47;;;20.30;34.30;;;;;;5061888;28;46762;-78
2023/07/18 00:19:58;;;;;;;11.63;6.20;;;20.30;34.30;;;;;;5042655;28;46410;-79
2023/07/18 00:22:24;;;;;;;15.80;6.07;;;20.20;34.20;;;;;;5062945;28;46490;-78
2023/07/18 00:24:49;;;;;;;12.80;6.27;;;20.20;34.40;;;;;;5062617;28;46368;-79
2023/07/18 00:27:15;;;;;;;12.27;6.43;;;20.20;34.20;;;;;;5060888;28;46949;-78
2023/07/18 00:29:41;;;;;;;18.33;7.10;;;20.30;34.30;;;;;;5059510;28;46341;-78
2023/07/18 00:32:07;;;;;;;14.17;6.30;;;20.30;34.30;;;;;;5041435;28;49146;-78
2023/07/18 00:34:33;;;;;;;12.43;6.80;;;20.30;34.30;;;;;;5061193;28;46486;-78
2023/07/18 00:36:58;;;;;;;13.03;6.37;;;20.40;34.40;;;;;;5042756;28;46535;-79
2023/07/18 00:39:24;;;;;;;13.40;6.53;;;20.30;34.30;;;;;;5059654;28;46576;-79
2023/07/18 00:41:49;;;;;;;14.37;5.47;;;20.40;34.40;;;;;;5063465;28;46730;-79
2023/07/18 00:44:15;;;;;;;17.60;6.70;;;20.30;34.20;;;;;;5061996;28;46426;-80
2023/07/18 00:46:41;;;;;;;11.07;6.17;;;20.40;34.00;;;;;;5064618;28;46632;-80
2023/07/18 00:49:08;;;;;;;11.93;6.50;;;20.40;33.90;;;;;;5063700;28;46659;-78
2023/07/18 00:51:34;;;;;;;11.73;6.53;;;20.50;34.50;;;;;;5062740;28;46622;-78
2023/07/18 00:54:00;;;;;;;11.53;6.90;;;20.40;34.40;;;;;;5061496;28;46749;-78
2023/07/18 00:56:26;;;;;;;9.10;5.80;;;20.40;34.40;;;;;;5061113;28;45853;-79
2023/07/18 00:58:53;;;;;;;14.23;6.47;;;20.30;34.80;;;;;;5042308;28;46614;-78
2023/07/18 01:01:18;;;;;;;12.60;6.30;;;20.40;35.10;;;;;;5060959;28;47344;-78
2023/07/18 01:03:44;;;;;;;17.33;5.73;;;20.30;35.20;;;;;;5061843;27;46511;-77
2023/07/18 01:06:10;;;;;;;18.53;6.33;;;20.10;35.70;;;;;;5060843;28;46487;-79
2023/07/18 01:08:35;;;;;;;12.93;6.67;;;20.10;36.20;;;;;;5061313;28;46161;-80
2023/07/18 01:11:01;;;;;;;11.33;6.07;;;20.10;36.90;;;;;;5058120;28;46491;-78
2023/07/18 01:13:27;;;;;;;13.43;6.70;;;20.00;37.00;;;;;;5060577;28;46482;-79
2023/07/18 01:15:52;;;;;;;10.10;5.83;;;20.10;37.20;;;;;;5063709;28;46427;-79
2023/07/18 01:18:18;;;;;;;11.33;6.20;;;19.90;37.50;;;;;;5045211;28;46545;-78
2023/07/18 01:20:45;;;;;;;10.33;6.43;;;19.80;38.10;;;;;;5062032;28;46621;-77
2023/07/18 01:23:12;;;;;;;11.27;6.17;;;19.70;38.90;;;;;;5059998;28;46791;-78
2023/07/18 01:25:38;;;;;;;10.63;6.57;;;19.60;39.60;;;;;;5045258;28;46490;-78
2023/07/18 01:28:06;;;;;;;10.37;6.30;;;19.50;40.20;;;;;;5058456;28;46581;-77
2023/07/18 01:30:32;;;;;;;10.97;6.80;;;19.30;40.70;;;;;;5060124;28;48456;-79
2023/07/18 01:32:58;;;;;;;12.20;7.20;;;19.20;41.20;;;;;;5060021;28;46706;-79
2023/07/18 01:35:25;;;;;;;10.27;6.70;;;19.10;41.80;;;;;;5061152;28;46453;-79
2023/07/18 01:37:52;;;;;;;13.80;6.40;;;19.00;42.30;;;;;;5060133;28;46746;-79
2023/07/18 01:40:22;;;;;;;11.43;6.30;;;18.90;42.70;;;;;;5062237;28;47192;-81
2023/07/18 01:42:52;;;;;;;12.87;6.73;;;18.80;42.90;;;;;;5062543;28;46570;-79
2023/07/18 01:45:19;;;;;;;17.13;7.80;;;18.70;43.00;;;;;;5063871;28;46511;-78
2023/07/18 01:47:45;;;;;;;13.83;6.33;;;18.60;43.10;;;;;;5046813;28;46729;-80
2023/07/18 01:50:11;;;;;;;13.77;6.37;;;18.60;43.50;;;;;;5064431;28;46647;-78
2023/07/18 01:52:37;;;;;;;9.47;6.30;;;18.50;43.60;;;;;;5062317;28;46506;-78
2023/07/18 01:55:05;;;;;;;15.40;6.70;;;18.50;43.80;;;;;;5062750;28;46495;-79
2023/07/18 01:57:40;;;;;;;13.40;7.37;;;18.50;43.80;;;;;;5062561;28;47572;-82
2023/07/18 02:00:10;;;;;;;10.67;7.10;;;18.40;43.90;;;;;;5060629;28;48256;-79
2023/07/18 02:02:37;;;;;;;12.57;6.50;;;18.30;44.20;;;;;;5058455;28;46490;-83
2023/07/18 02:05:04;;;;;;;16.80;6.80;;;18.20;44.50;;;;;;5056211;28;46661;-80
2023/07/18 02:07:30;;;;;;;11.83;6.30;;;18.20;45.00;;;;;;5060107;28;46447;-78
2023/07/18 02:09:55;;;;;;;14.43;7.20;;;18.20;45.40;;;;;;5058672;28;46538;-78
2023/07/18 02:12:21;;;;;;;16.97;7.93;;;18.20;45.10;;;;;;5059173;28;46506;-79
2023/07/18 02:14:46;;;;;;;17.67;7.63;;;18.20;45.00;;;;;;5061695;28;46776;-77
2023/07/18 02:17:12;;;;;;;13.53;8.00;;;18.30;44.60;;;;;;5064560;28;46562;-79
2023/07/18 02:19:37;;;;;;;13.97;7.47;;;18.40;44.30;;;;;;5040104;28;48181;-79
2023/07/18 02:22:04;;;;;;;14.60;6.90;;;18.20;44.10;;;;;;5055483;28;47243;-79
2023/07/18 02:24:30;;;;;;;22.33;8.73;;;18.10;44.30;;;;;;5057893;28;46907;-78
2023/07/18 02:26:57;;;;;;;18.53;8.53;;;18.10;44.50;;;;;;5041322;28;45844;-78
2023/07/18 02:29:22;;;;;;;12.47;7.47;;;18.00;44.50;;;;;;5059042;28;47596;-78
2023/07/18 02:31:49;;;;;;;13.23;7.70;;;18.00;44.70;;;;;;5057976;28;46806;-80
2023/07/18 02:34:15;;;;;;;18.93;7.73;;;18.00;44.70;;;;;;5060124;28;46692;-79
2023/07/18 02:36:41;;;;;;;13.40;7.70;;;18.20;44.80;;;;;;5042541;28;46630;-79
2023/07/18 02:39:08;;;;;;;12.30;7.60;;;18.00;44.40;;;;;;5059451;28;46530;-79
2023/07/18 02:41:34;;;;;;;11.87;7.20;;;18.10;44.00;;;;;;5060004;28;46419;-79
2023/07/18 02:44:00;;;;;;;12.23;6.10;;;18.20;43.70;;;;;;5059799;27;46485;-79
2023/07/18 02:46:25;;;;;;;12.10;7.40;;;18.20;43.40;;;;;;5060600;28;46629;-79
2023/07/18 02:48:51;;;;;;;11.93;7.10;;;18.20;43.40;;;;;;5059628;28;46557;-81
2023/07/18 02:51:16;;;;;;;10.50;6.93;;;18.20;45.20;;;;;;5059902;28;46344;-81
2023/07/18 02:53:42;;;;;;;15.53;6.97;;;18.00;44.00;;;;;;5062615;28;46411;-81
2023/07/18 02:56:08;;;;;;;10.80;6.80;;;18.00;44.40;;;;;;5059147;28;46896;-79
2023/07/18 02:58:34;;;;;;;11.17;7.30;;;17.90;44.40;;;;;;5041034;28;48072;-80
2023/07/18 03:01:00;;;;;;;15.33;7.03;;;17.90;44.50;;;;;;5058331;28;46615;-79
2023/07/18 03:03:27;;;;;;;10.93;6.80;;;17.90;44.80;;;;;;5058747;28;46856;-79
2023/07/18 03:05:56;;;;;;;12.23;6.30;;;17.90;44.80;;;;;;5058348;28;45976;-80
2023/07/18 03:08:22;;;;;;;14.13;7.10;;;17.80;44.80;;;;;;5040385;28;49147;-80
2023/07/18 03:10:47;;;;;;;15.13;5.60;;;17.80;45.00;;;;;;5043209;28;47037;-80
2023/07/18 03:13:13;;;;;;;19.53;8.13;;;17.70;45.60;;;;;;5059656;28;45886;-79
2023/07/18 03:15:40;;;;;;;14.23;7.30;;;17.60;45.50;;;;;;5059830;28;46554;-80
2023/07/18 03:18:08;;;;;;;14.10;7.37;;;17.50;45.30;;;;;;5060833;28;46716;-81
2023/07/18 03:20:34;;;;;;;17.90;8.30;;;17.50;45.30;;;;;;5061350;28;46538;-81
2023/07/18 03:23:01;;;;;;;13.87;7.87;;;17.50;45.40;;;;;;5062250;28;46500;-83
2023/07/18 03:25:27;;;;;;;12.70;6.67;;;17.50;45.40;;;;;;5062238;28;46778;-83
2023/07/18 03:27:53;;;;;;;13.43;6.77;;;17.50;45.40;;;;;;5053261;28;46634;-81
2023/07/18 03:30:18;;;;;;;13.00;6.67;;;17.30;45.50;;;;;;5053619;28;46677;-81
2023/07/18 03:32:44;;;;;;;11.10;6.07;;;17.30;46.10;;;;;;5058126;28;46315;-80
2023/07/18 03:35:11;;;;;;;12.80;6.80;;;17.20;46.20;;;;;;5057287;28;46771;-80
2023/07/18 03:37:37;;;;;;;15.87;6.40;;;17.20;46.30;;;;;;5060854;28;46708;-79
2023/07/18 03:40:07;;;;;;;14.00;6.73;;;17.20;46.50;;;;;;5061107;28;46709;-78
2023/07/18 03:42:33;;;;;;;12.37;6.93;;;17.20;46.70;;;;;;5062263;28;45938;-80
2023/07/18 03:44:59;;;;;;;10.57;7.00;;;17.10;46.90;;;;;;5064151;28;46458;-83
2023/07/18 03:47:24;;;;;;;10.63;6.43;;;17.10;46.70;;;;;;5065327;28;46486;-80
2023/07/18 03:49:50;;;;;;;14.63;6.80;;;17.20;46.60;;;;;;5062310;28;46639;-82
2023/07/18 03:52:16;;;;;;;18.70;7.03;;;17.30;46.20;;;;;;5042772;28;46753;-82
2023/07/18 03:54:42;;;;;;;15.67;6.80;;;17.30;45.80;;;;;;5061200;28;46466;-81
2023/07/18 03:57:07;;;;;;;11.53;6.50;;;17.40;45.60;;;;;;5061904;28;46709;-80
2023/07/18 03:59:33;;;;;;;13.63;6.60;;;17.40;45.40;;;;;;5060041;28;46445;-82
2023/07/18 04:01:58;;;;;;;14.50;7.27;;;17.40;45.60;;;;;;5062409;28;46531;-81
2023/07/18 04:04:24;;;;;;;14.30;6.77;;;17.40;45.70;;;;;;5065064;28;46514;-81
2023/07/18 04:06:50;;;;;;;14.50;8.30;;;17.50;45.70;;;;;;5061985;28;46716;-82
2023/07/18 04:09:15;;;;;;;16.03;7.50;;;17.50;45.40;;;;;;5059155;28;46848;-80
2023/07/18 04:11:43;;;;;;;13.17;6.50;;;17.70;44.40;;;;;;5061419;28;46472;-82
2023/07/18 04:14:09;;;;;;;15.90;7.90;;;17.60;45.50;;;;;;5057696;28;46605;-81
2023/07/18 04:16:35;;;;;;;13.60;7.10;;;17.70;45.50;;;;;;5061718;28;47122;-80
2023/07/18 04:19:00;;;;;;;15.90;7.80;;;17.80;45.60;;;;;;5061923;28;46910;-81
2023/07/18 04:21:26;;;;;;;10.93;6.63;;;17.90;45.80;;;;;;5066072;28;46513;-79
2023/07/18 04:23:51;;;;;;;12.63;6.70;;;18.00;45.30;;;;;;5062506;28;46680;-82
2023/07/18 04:26:17;;;;;;;13.60;6.00;;;18.20;44.70;;;;;;5060520;28;46343;-83
2023/07/18 04:28:42;;;;;;;13.23;6.00;;;18.30;44.40;;;;;;5041707;28;47307;-81
2023/07/18 04:31:08;;;;;;;12.60;6.17;;;18.50;44.50;;;;;;5061978;28;46418;-82
2023/07/18 04:33:36;;;;;;;9.77;6.13;;;18.40;44.40;;;;;;5061818;28;45967;-80
2023/07/18 04:36:04;;;;;;;16.77;6.37;;;18.50;44.40;;;;;;5061197;28;47084;-82
2023/07/18 04:38:29;;;;;;;14.40;6.40;;;18.60;44.50;;;;;;5061136;28;46374;-82
2023/07/18 04:40:55;;;;;;;16.73;6.97;;;18.70;44.30;;;;;;5059928;28;46394;-81
2023/07/18 04:43:21;;;;;;;12.67;7.50;;;18.80;43.80;;;;;;5041980;28;46647;-82
2023/07/18 04:45:47;;;;;;;12.27;6.90;;;19.00;43.30;;;;;;5063302;28;46861;-82
2023/07/18 04:48:14;;;;;;;17.03;7.77;;;19.30;42.60;;;;;;5025995;28;46535;-80
2023/07/18 04:51:03;;;;;;;20.17;7.93;;;19.40;41.90;;;;;;5061148;28;46469;-80
2023/07/18 04:53:31;;;;;;;17.03;6.93;;;19.50;40.60;;;;;;5042163;28;46643;-81
2023/07/18 04:55:57;;;;;;;14.23;8.00;;;20.50;38.50;;;;;;5060901;28;46676;-82
2023/07/18 04:58:24;;;;;;;21.53;7.13;;;21.80;35.70;;;;;;5061090;28;46965;-82
2023/07/18 05:00:51;;;;;;;15.97;7.17;;;22.40;31.90;;;;;;5067001;28;46527;-82
2023/07/18 05:03:17;;;;;;;9.63;5.90;;;23.00;30.20;;;;;;5062718;28;46658;-81
2023/07/18 05:05:43;;;;;;;11.43;6.10;;;24.20;28.60;;;;;;5044153;28;48137;-79
2023/07/18 05:08:09;;;;;;;10.60;5.93;;;24.90;27.00;;;;;;5061174;28;46455;-78
2023/07/18 05:10:34;;;;;;;11.40;5.83;;;25.60;26.00;;;;;;5063354;28;46430;-80
2023/07/18 05:13:00;;;;;;;13.43;5.77;;;26.30;24.40;;;;;;5066529;28;46312;-79
2023/07/18 05:15:25;;;;;;;14.73;5.60;;;26.60;23.60;;;;;;5042709;28;48180;-80
2023/07/18 05:17:51;;;;;;;15.63;4.90;;;27.20;22.30;;;;;;5060487;28;46363;-82
2023/07/18 05:20:17;;;;;;;10.73;5.60;;;27.80;20.70;;;;;;5060307;28;46553;-81
2023/07/18 05:22:45;;;;;;;9.73;5.50;;;28.50;19.00;;;;;;5059668;28;46723;-80
2023/07/18 05:25:13;;;;;;;8.70;5.87;;;29.00;18.10;;;;;;5059805;28;47261;-80
2023/07/18 05:27:39;;;;;;;18.40;6.10;;;29.40;16.20;;;;;;5043251;28;46507;-79
2023/07/18 05:30:10;;;;;;;14.90;5.70;;;28.80;16.10;;;;;;5061141;28;46464;-79
2023/07/18 05:32:35;;;;;;;9.47;5.43;;;27.90;17.70;;;;;;5043362;28;46606;-80
2023/07/18 05:35:01;;;;;;;15.53;6.07;;;28.10;16.60;;;;;;5062199;28;46525;-81
2023/07/18 05:37:29;;;;;;;9.10;5.97;;;28.90;15.20;;;;;;5060564;28;46434;-80
2023/07/18 05:39:55;;;;;;;11.20;4.70;;;29.60;13.30;;;;;;5036779;28;46716;-81
2023/07/18 05:42:21;;;;;;;11.23;4.57;;;30.30;11.50;;;;;;5060259;28;46486;-81
2023/07/18 05:44:47;;;;;;;10.43;5.63;;;30.90;9.40;;;;;;5041990;28;49428;-80
2023/07/18 05:47:13;;;;;;;9.80;4.77;;;31.40;6.90;;;;;;5061217;28;46432;-80
2023/07/18 05:49:38;;;;;;;11.03;4.83;;;31.60;6.40;;;;;;5061414;28;46540;-82
2023/07/18 05:52:04;;;;;;;8.97;4.43;;;31.60;5.50;;;;;;5061133;28;46494;-79
2023/07/18 05:54:30;;;;;;;8.50;3.97;;;31.70;4.00;;;;;;5045123;28;48249;-81
2023/07/18 05:56:58;;;;;;;6.60;3.53;;;31.70;1.80;;;;;;5065318;28;45824;-81
2023/07/18 05:59:25;;;;;;;10.00;4.43;;;31.30;1.00;;;;;;5043264;28;46454;-79
2023/07/18 06:01:50;;;;;;;6.70;3.80;;;31.70;1.00;;;;;;5062194;28;46442;-80
2023/07/18 06:04:16;;;;;;;9.47;4.33;;;31.70;1.00;;;;;;5063044;28;47072;-84
2023/07/18 06:06:43;;;;;;;13.03;4.50;;;31.30;1.00;;;;;;5064652;28;46530;-82
2023/07/18 06:09:09;;;;;;;9.43;4.47;;;29.80;3.80;;;;;;5066583;28;46726;-84
2023/07/18 06:11:35;;;;;;;7.03;4.00;;;28.20;6.30;;;;;;5064411;28;46171;-81
2023/07/18 06:14:00;;;;;;;7.90;3.90;;;26.80;9.20;;;;;;5060742;28;46623;-82
2023/07/18 06:16:27;;;;;;;6.47;4.03;;;26.10;10.20;;;;;;5060938;28;46502;-80
2023/07/18 06:18:53;;;;;;;8.47;4.23;;;25.60;10.80;;;;;;5042865;28;46806;-80
2023/07/18 06:21:18;;;;;;;7.33;3.50;;;25.10;10.40;;;;;;5059213;28;46534;-80
2023/07/18 06:23:44;;;;;;;8.80;4.03;;;24.90;10.50;;;;;;5059559;28;47987;-80
2023/07/18 06:26:10;;;;;;;8.90;5.00;;;24.80;10.10;;;;;;5060451;28;46574;-80
2023/07/18 06:28:35;;;;;;;10.57;3.93;;;24.80;10.30;;;;;;5058022;28;46398;-81
2023/07/18 06:31:01;;;;;;;9.23;3.83;;;24.90;9.80;;;;;;5061206;28;46444;-80
2023/07/18 06:33:26;;;;;;;8.87;3.57;;;24.90;9.40;;;;;;5059785;28;47544;-81
2023/07/18 06:35:53;;;;;;;13.07;4.10;;;24.70;9.40;;;;;;5060250;28;46479;-83
2023/07/18 06:38:19;;;;;;;8.70;3.53;;;24.80;9.40;;;;;;5059730;28;46785;-79
2023/07/18 06:40:46;;;;;;;8.10;4.07;;;24.90;8.60;;;;;;5059471;28;46565;-80
2023/07/18 06:43:12;;;;;;;15.93;4.23;;;24.70;8.80;;;;;;5059107;28;46077;-80
2023/07/18 06:45:38;;;;;;;5.37;3.03;;;24.50;8.50;;;;;;5041123;28;46402;-79
2023/07/18 06:48:03;;;;;;;8.37;3.70;;;24.50;8.30;;;;;;5059166;28;46450;-79
2023/07/18 06:50:29;;;;;;;11.03;4.03;;;24.60;7.80;;;;;;5060643;28;46489;-80
2023/07/18 06:52:55;;;;;;;9.20;3.27;;;24.70;7.30;;;;;;5061804;28;46198;-78
2023/07/18 06:55:21;;;;;;;8.90;4.00;;;24.80;6.70;;;;;;5060660;28;46683;-80
2023/07/18 06:57:46;;;;;;;9.20;3.30;;;24.80;6.80;;;;;;5059925;28;46456;-81
2023/07/18 07:00:12;;;;;;;8.53;3.50;;;24.80;7.10;;;;;;5060690;28;46404;-82
2023/07/18 07:02:38;;;;;;;7.50;3.20;;;25.00;6.90;;;;;;5058673;28;48293;-81
2023/07/18 07:05:04;;;;;;;7.60;3.40;;;25.20;6.40;;;;;;5059709;28;45945;-80
2023/07/18 07:07:30;;;;;;;7.53;3.93;;;25.20;7.50;;;;;;5060064;28;46515;-81
2023/07/18 07:09:55;;;;;;;8.90;4.00;;;25.00;6.80;;;;;;5063590;28;46697;-81
2023/07/18 07:12:21;;;;;;;7.73;3.27;;;24.90;7.00;;;;;;5061715;28;46994;-80
2023/07/18 07:14:47;;;;;;;9.20;3.93;;;25.00;6.70;;;;;;5064863;28;46404;-81
2023/07/18 07:17:12;;;;;;;10.53;4.07;;;25.10;6.10;;;;;;5063738;28;45811;-81
2023/07/18 07:19:39;;;;;;;7.20;3.47;;;25.30;6.70;;;;;;5062316;28;46438;-80
2023/07/18 07:22:05;;;;;;;11.80;3.77;;;25.30;5.90;;;;;;5062088;28;46442;-81
2023/07/18 07:24:30;;;;;;;9.83;3.90;;;25.30;5.90;;;;;;5062947;28;46885;-80
2023/07/18 07:26:56;;;;;;;8.47;2.97;;;25.60;5.30;;;;;;5065094;28;46530;-81
2023/07/18 07:29:22;;;;;;;7.77;3.70;;;25.50;4.90;;;;;;5064072;28;46613;-82
2023/07/18 07:31:47;;;;;;;8.80;3.60;;;25.80;4.60;;;;;;5063432;28;47126;-81
2023/07/18 07:34:13;;;;;;;12.37;3.37;;;26.00;4.40;;;;;;5065164;28;46438;-82
2023/07/18 07:36:38;;;;;;;8.53;3.50;;;26.00;4.00;;;;;;5065370;28;46674;-81
2023/07/18 07:39:04;;;;;;;8.90;3.23;;;25.80;3.90;;;;;;5066858;28;46546;-80
2023/07/18 07:41:30;;;;;;;7.37;3.63;;;25.80;3.90;;;;;;5068020;28;47085;-79
2023/07/18 07:43:55;;;;;;;17.17;3.83;;;25.70;3.80;;;;;;5067018;28;46821;-83
2023/07/18 07:46:21;;;;;;;10.77;3.50;;;25.80;3.90;;;;;;5071793;28;46422;-85
2023/07/18 07:48:47;;;;;;;10.13;3.50;;;25.80;3.90;;;;;;5068155;28;46474;-80
2023/07/18 07:51:16;;;;;;;10.80;3.70;;;26.00;4.00;;;;;;5061935;28;46437;-79
2023/07/18 07:53:43;;;;;;;8.20;3.67;;;26.20;4.00;;;;;;5061191;28;46490;-83
2023/07/18 07:56:09;;;;;;;7.07;3.47;;;26.30;3.80;;;;;;5064289;28;46787;-81
2023/07/18 07:58:36;;;;;;;10.93;3.77;;;26.30;3.00;;;;;;5061318;28;46443;-79
2023/07/18 08:01:02;;;;;;;8.73;3.20;;;26.30;3.10;;;;;;5048912;28;48323;-82
2023/07/18 08:03:28;;;;;;;9.33;3.67;;;26.30;3.10;;;;;;5060896;28;46526;-82
2023/07/18 08:05:53;;;;;;;7.27;3.33;;;26.40;3.10;;;;;;5044381;28;46567;-81
2023/07/18 08:08:19;;;;;;;7.50;3.13;;;26.20;3.20;;;;;;5063863;28;45887;-81
2023/07/18 08:10:45;;;;;;;10.43;3.53;;;26.10;3.00;;;;;;5063314;28;46391;-82
2023/07/18 08:13:10;;;;;;;6.50;3.17;;;26.20;3.00;;;;;;5061684;28;46263;-81
2023/07/18 08:15:36;;;;;;;8.03;3.23;;;26.20;2.80;;;;;;5064498;28;46488;-81
2023/07/18 08:18:01;;;;;;;14.10;4.10;;;26.20;2.50;;;;;;5062482;28;46492;-82
2023/07/18 08:20:27;;;;;;;9.80;3.30;;;26.30;2.60;;;;;;5062173;28;47058;-81
2023/07/18 08:22:54;;;;;;;12.00;3.27;;;26.60;2.30;;;;;;5062075;28;46600;-81
2023/07/18 08:25:20;;;;;;;10.43;3.70;;;26.50;2.30;;;;;;5063620;28;46378;-82
2023/07/18 08:27:45;;;;;;;6.57;3.57;;;26.60;2.20;;;;;;5061984;28;46245;-83
2023/07/18 08:30:11;;;;;;;6.53;3.40;;;26.80;1.90;;;;;;5061683;28;46595;-80
2023/07/18 08:32:37;;;;;;;9.87;3.83;;;26.90;1.60;;;;;;5061197;28;46458;-80
2023/07/18 08:35:04;;;;;;;9.60;3.77;;;27.00;1.40;;;;;;5064438;28;46571;-80
2023/07/18 08:37:30;;;;;;;7.37;3.70;;;27.00;1.50;;;;;;5046849;28;46176;-79
2023/07/18 08:39:56;;;;;;;10.60;3.87;;;27.00;1.50;;;;;;5062637;28;46321;-79
2023/07/18 08:42:26;;;;;;;9.00;3.70;;;27.00;1.50;;;;;;5063599;28;46514;-79
2023/07/18 08:44:53;;;;;;;6.20;2.90;;;26.80;1.70;;;;;;5063543;28;46237;-80
2023/07/18 08:47:22;;;;;;;14.17;4.10;;;26.90;1.90;;;;;;5060943;28;46565;-81
2023/07/18 08:49:48;;;;;;;10.93;3.53;;;27.10;1.60;;;;;;5062773;28;46674;-82
2023/07/18 08:52:13;;;;;;;6.23;3.87;;;26.90;1.60;;;;;;5063050;28;46411;-82
2023/07/18 08:54:39;;;;;;;8.13;3.53;;;27.00;1.80;;;;;;5043842;28;46397;-81
2023/07/18 08:57:06;;;;;;;10.50;4.20;;;27.30;2.00;;;;;;5063793;28;46557;-81
2023/07/18 08:59:32;;;;;;;10.40;3.60;;;27.70;2.00;;;;;;5062295;28;46427;-81
2023/07/18 09:01:57;;;;;;;6.50;3.30;;;27.80;1.10;;;;;;5062149;28;46432;-81
2023/07/18 09:04:23;;;;;;;9.33;4.00;;;27.80;1.90;;;;;;5066231;28;46447;-82
2023/07/18 09:07:00;;;;;;;7.83;4.00;;;27.90;1.40;;;;;;5053805;28;46464;-84
2023/07/18 09:09:26;;;;;;;11.57;4.30;;;27.70;1.30;;;;;;5065492;28;46716;-82
2023/07/18 09:12:02;;;;;;;7.53;4.00;;;28.20;1.00;;;;;;5065232;28;46534;-81
2023/07/18 09:14:30;;;;;;;7.63;3.90;;;28.30;1.10;;;;;;5065008;28;46784;-79
2023/07/18 09:16:58;;;;;;;9.00;3.97;;;28.40;1.00;;;;;;5063282;28;46807;-81
2023/07/18 09:19:39;;;;;;;8.77;4.00;;;28.50;1.00;;;;;;5060227;28;46688;-80
2023/07/18 09:22:12;;;;;;;9.07;3.70;;;28.60;1.00;;;;;;5058901;28;46733;-81
2023/07/18 09:24:38;;;;;;;9.90;4.30;;;28.60;1.00;;;;;;5053331;28;46861;-80
2023/07/18 09:27:15;;;;;;;8.07;4.10;;;28.50;1.70;;;;;;5062188;28;46419;-82
2023/07/18 09:29:44;;;;;;;7.80;4.53;;;28.00;1.30;;;;;;5061138;28;47270;-81
2023/07/18 09:32:21;;;;;;;12.00;4.23;;;27.90;1.80;;;;;;5042444;28;46448;-79
2023/07/18 09:34:53;;;;;;;7.47;3.77;;;28.00;1.80;;;;;;5064174;28;46923;-82
2023/07/18 09:37:19;;;;;;;9.73;4.57;;;28.40;2.70;;;;;;5062489;28;46406;-80
2023/07/18 09:39:46;;;;;;;15.83;3.87;;;28.50;1.40;;;;;;5064827;28;47575;-82
2023/07/18 09:42:12;;;;;;;8.20;4.00;;;28.30;1.70;;;;;;5042704;28;46759;-81
2023/07/18 09:44:40;;;;;;;8.37;4.30;;;28.40;1.40;;;;;;5060000;28;46510;-81
2023/07/18 09:47:06;;;;;;;10.30;4.90;;;28.30;1.40;;;;;;5060938;28;46764;-80
2023/07/18 09:49:37;;;;;;;7.70;4.60;;;28.10;1.40;;;;;;5061333;28;47154;-80
2023/07/18 09:52:05;;;;;;;8.60;4.57;;;27.90;1.90;;;;;;5060539;28;46381;-79
2023/07/18 09:54:32;;;;;;;6.33;3.27;;;28.00;2.00;;;;;;5044078;28;46696;-80
2023/07/18 09:57:05;;;;;;;10.80;4.00;;;28.20;1.70;;;;;;5042822;28;46818;-82
2023/07/18 09:59:34;;;;;;;15.90;4.23;;;28.50;1.10;;;;;;5060403;28;47608;-79
2023/07/18 10:02:04;;;;;;;11.87;4.13;;;28.40;1.00;;;;;;5039180;28;46814;-80
2023/07/18 10:04:30;;;;;;;9.70;4.10;;;28.40;1.60;;;;;;5058539;28;46774;-81
2023/07/18 10:06:56;;;;;;;14.63;4.17;;;28.50;1.60;;;;;;5045156;28;47427;-80
2023/07/18 10:09:23;;;;;;;9.20;3.40;;;28.80;1.40;;;;;;5047602;28;47872;-80
2023/07/18 10:11:58;;;;;;;7.33;3.93;;;29.30;1.00;;;;;;5071902;28;46482;-80
2023/07/18 10:14:30;;;;;;;7.90;4.00;;;29.30;1.00;;;;;;5072600;27;46448;-79
2023/07/18 10:16:59;;;;;;;16.47;4.30;;;29.20;1.00;;;;;;5070729;28;46993;-80
2023/07/18 10:19:25;;;;;;;13.43;4.27;;;29.50;1.00;;;;;;5061967;28;46520;-80
2023/07/18 10:21:56;;;;;;;12.40;4.10;;;28.80;1.00;;;;;;5060156;28;46454;-85
2023/07/18 10:24:26;;;;;;;11.70;4.50;;;28.70;1.00;;;;;;5064249;28;46703;-80
2023/07/18 10:26:54;;;;;;;7.53;4.13;;;28.70;1.10;;;;;;5044363;28;46575;-80
2023/07/18 10:29:20;;;;;;;12.57;4.30;;;28.70;1.30;;;;;;5065297;28;46391;-82
2023/07/18 10:31:47;;;;;;;8.60;3.90;;;29.10;1.00;;;;;;5060813;28;46636;-81
2023/07/18 10:34:15;;;;;;;8.50;4.47;;;29.10;1.60;;;;;;5060347;28;47012;-80
2023/07/18 10:36:53;;;;;;;8.40;3.90;;;29.20;1.00;;;;;;5063240;28;46546;-80
2023/07/18 10:39:19;;;;;;;14.57;4.43;;;29.30;1.00;;;;;;5061559;28;48404;-81
2023/07/18 10:41:45;;;;;;;7.93;4.03;;;29.30;1.00;;;;;;5059657;28;46686;-79
2023/07/18 10:44:14;;;;;;;10.17;4.70;;;29.30;1.00;;;;;;5065461;28;46545;-80
2023/07/18 10:46:40;;;;;;;10.33;4.30;;;29.20;1.00;;;;;;5065096;28;46748;-79
2023/07/18 10:49:06;;;;;;;10.10;4.20;;;29.30;1.00;;;;;;5066981;28;46957;-82
2023/07/18 10:51:33;;;;;;;9.77;4.43;;;29.10;1.00;;;;;;5067201;28;46996;-81
2023/07/18 10:53:59;;;;;;;12.83;4.40;;;28.90;1.00;;;;;;5067091;28;46502;-80
2023/07/18 10:56:25;;;;;;;12.10;4.57;;;29.10;1.00;;;;;;5067877;28;46736;-81
2023/07/18 10:58:51;;;;;;;8.43;4.40;;;29.40;1.10;;;;;;5066693;28;46636;-79
2023/07/18 11:01:17;;;;;;;10.87;4.40;;;29.40;1.00;;;;;;5064562;28;46693;-79
2023/07/18 11:03:47;;;;;;;10.13;4.80;;;29.20;1.00;;;;;;5067627;28;46489;-80
2023/07/18 11:06:16;;;;;;;8.90;4.60;;;29.20;1.00;;;;;;5066839;28;46522;-80
2023/07/18 11:08:45;;;;;;;9.40;4.70;;;29.10;1.00;;;;;;5065682;28;47087;-81
2023/07/18 11:11:11;;;;;;;15.50;4.73;;;29.20;1.00;;;;;;5068682;28;46178;-80
2023/07/18 11:13:38;;;;;;;11.40;4.83;;;29.50;1.00;;;;;;5047176;28;46527;-80
2023/07/18 11:16:08;;;;;;;7.80;4.10;;;29.80;1.00;;;;;;5067083;28;46688;-79
2023/07/18 11:18:36;;;;;;;7.73;3.93;;;29.90;1.00;;;;;;5066953;28;47299;-82
2023/07/18 11:21:03;;;;;;;8.70;4.60;;;30.10;1.00;;;;;;5050588;28;46606;-84
2023/07/18 11:23:34;;;;;;;8.67;4.70;;;30.30;1.00;;;;;;5067213;28;46407;-82
2023/07/18 11:25:59;;;;;;;7.73;4.00;;;30.30;1.00;;;;;;5068423;28;46722;-81
2023/07/18 11:28:31;;;;;;;7.00;3.80;;;30.30;1.00;;;;;;5055338;28;48430;-80
2023/07/18 11:30:57;;;;;;;13.10;4.57;;;29.90;1.00;;;;;;5068736;28;46675;-82
2023/07/18 11:33:31;;;;;;;14.20;4.53;;;29.90;1.00;;;;;;5069618;28;46540;-82
2023/07/18 11:35:56;;;;;;;9.93;4.30;;;29.80;1.00;;;;;;5070673;28;46530;-82
2023/07/18 11:38:24;;;;;;;10.03;4.63;;;29.60;1.00;;;;;;5070565;28;46559;-83
2023/07/18 11:40:50;;;;;;;11.70;4.93;;;29.30;1.00;;;;;;5072406;28;46625;-82
2023/07/18 11:43:18;;;;;;;12.00;4.83;;;29.10;1.00;;;;;;5049255;28;46675;-81
2023/07/18 11:45:44;;;;;;;7.73;4.43;;;28.90;1.00;;;;;;5066866;28;46798;-80
2023/07/18 11:48:10;;;;;;;8.27;4.37;;;28.80;1.00;;;;;;5066572;28;47400;-81
2023/07/18 11:50:35;;;;;;;9.90;4.67;;;28.80;1.00;;;;;;5070263;28;46350;-81
2023/07/18 11:53:03;;;;;;;8.20;4.50;;;29.10;1.00;;;;;;5051966;28;46557;-82
2023/07/18 11:55:30;;;;;;;9.90;4.10;;;29.40;1.00;;;;;;5062263;28;46434;-81
2023/07/18 11:57:57;;;;;;;12.13;4.90;;;29.30;1.00;;;;;;5061848;28;46469;-80
2023/07/18 12:00:23;;;;;;;18.43;4.80;;;29.10;1.00;;;;;;5066301;28;46284;-80
2023/07/18 12:02:48;;;;;;;8.23;3.63;;;28.90;1.40;;;;;;5062313;28;45887;-81
2023/07/18 12:05:15;;;;;;;17.03;5.03;;;28.60;2.00;;;;;;5065718;28;46463;-81
2023/07/18 12:07:43;;;;;;;12.23;4.60;;;28.40;2.60;;;;;;5062661;28;48082;-81
2023/07/18 12:10:10;;;;;;;16.10;5.20;;;28.20;3.30;;;;;;5064128;28;46429;-80
2023/07/18 12:12:39;;;;;;;12.60;4.23;;;27.80;5.00;;;;;;5067614;28;46229;-79
2023/07/18 12:15:06;;;;;;;8.40;5.00;;;27.40;5.50;;;;;;5060216;28;46510;-79
2023/07/18 12:17:31;;;;;;;18.17;5.90;;;27.10;6.80;;;;;;5062285;28;46505;-80
2023/07/18 12:19:57;;;;;;;7.97;4.20;;;26.80;8.20;;;;;;5062452;28;46501;-81
2023/07/18 12:22:24;;;;;;;8.67;3.90;;;26.50;9.50;;;;;;5061721;28;46030;-81
2023/07/18 12:24:49;;;;;;;7.50;4.77;;;26.20;10.60;;;;;;5044608;28;46611;-81
2023/07/18 12:27:15;;;;;;;8.20;4.10;;;26.10;11.20;;;;;;5061503;28;48184;-81
2023/07/18 12:29:42;;;;;;;10.70;4.63;;;25.80;11.90;;;;;;5044576;28;46501;-81
2023/07/18 12:32:09;;;;;;;8.60;5.20;;;25.60;12.60;;;;;;5062049;28;45851;-82
2023/07/18 12:34:41;;;;;;;14.53;5.17;;;25.60;13.20;;;;;;5061546;28;46399;-82
2023/07/18 12:37:08;;;;;;;11.20;5.57;;;25.40;14.50;;;;;;5043024;28;48565;-81
2023/07/18 12:39:34;;;;;;;10.17;5.50;;;25.10;14.90;;;;;;5061493;28;46429;-82
2023/07/18 12:41:59;;;;;;;16.60;4.97;;;24.90;14.90;;;;;;5061233;28;46431;-82